createdAt,value
2023-02-23T00:02:08.476Z,65.33
2023-02-23T00:04:37.402Z,65.01
2023-02-23T00:07:06.690Z,61.58
2023-02-23T00:09:37.844Z,54.41
2023-02-23T00:12:09.785Z,53.72
2023-02-23T00:14:38.416Z,55.44
2023-02-23T00:17:14.655Z,57.49
2023-02-23T00:19:45.955Z,58.97
2023-02-23T00:22:13.740Z,60.37
2023-02-23T00:24:47.252Z,61.34
2023-02-23T00:27:18.962Z,64.79
2023-02-23T00:29:49.658Z,64.69
2023-02-23T00:32:21.385Z,60.66
2023-02-23T00:34:49.819Z,54.62
2023-02-23T00:37:18.549Z,54.09
2023-02-23T00:39:49.677Z,55.76
2023-02-23T00:42:17.300Z,58.01
2023-02-23T00:44:47.540Z,59.31
2023-02-23T00:47:15.539Z,60.28
2023-02-23T00:49:44.987Z,61.55
2023-02-23T00:52:14.672Z,65.22
2023-02-23T00:54:42.435Z,65.96
2023-02-23T00:57:10.126Z,61.85
2023-02-23T00:59:37.963Z,55.44
2023-02-23T01:02:05.717Z,54.20
2023-02-23T01:04:33.431Z,55.88
2023-02-23T01:07:04.312Z,57.31
2023-02-23T01:09:32.843Z,58.92
2023-02-23T01:12:07.551Z,60.62
2023-02-23T01:14:37.685Z,61.11
2023-02-23T01:17:05.465Z,64.72
2023-02-23T01:19:34.332Z,65.67
2023-02-23T01:22:04.488Z,59.71
2023-02-23T01:24:32.517Z,53.99
2023-02-23T01:27:00.278Z,53.71
2023-02-23T01:29:28.257Z,55.41
2023-02-23T01:31:56.134Z,57.27
2023-02-23T01:34:25.677Z,58.77
2023-02-23T01:36:53.422Z,60.33
2023-02-23T01:39:21.280Z,61.51
2023-02-23T01:41:51.719Z,64.76
2023-02-23T01:44:19.402Z,65.03
2023-02-23T01:46:49.274Z,58.04
2023-02-23T01:49:20.908Z,54.98
2023-02-23T01:51:52.692Z,56.05
2023-02-23T01:54:25.314Z,57.95
2023-02-23T01:56:58.333Z,59.10
2023-02-23T01:59:36.422Z,61.49
2023-02-23T02:02:05.378Z,65.13
2023-02-23T02:04:44.218Z,64.80
2023-02-23T02:07:15.138Z,60.95
2023-02-23T02:10:03.534Z,54.74
2023-02-23T02:12:31.191Z,53.29
2023-02-23T02:15:00.269Z,55.34
2023-02-23T02:17:40.064Z,56.93
2023-02-23T02:20:26.597Z,58.76
2023-02-23T02:23:09.684Z,60.11
2023-02-23T02:25:46.260Z,60.49
2023-02-23T02:28:46.620Z,62.07
2023-02-23T02:31:26.033Z,67.83
2023-02-23T02:34:32.622Z,64.14
2023-02-23T02:37:18.243Z,54.74
2023-02-23T02:40:16.409Z,54.12
2023-02-23T02:43:00.627Z,55.82
2023-02-23T02:45:37.438Z,57.50
2023-02-23T02:48:11.260Z,59.12
2023-02-23T02:50:53.189Z,59.80
2023-02-23T02:53:45.655Z,61.29
2023-02-23T02:56:19.744Z,65.99
2023-02-23T02:58:50.173Z,64.83
2023-02-23T03:01:37.023Z,56.92
2023-02-23T03:04:40.836Z,54.32
2023-02-23T03:07:42.279Z,56.20
2023-02-23T03:11:24.476Z,57.34
2023-02-23T03:14:15.018Z,58.95
2023-02-23T03:17:04.920Z,59.88
2023-02-23T03:19:55.846Z,60.37
2023-02-23T03:22:50.681Z,61.83
2023-02-23T03:25:46.415Z,67.43
2023-02-23T03:28:39.930Z,65.93
2023-02-23T03:31:32.635Z,59.93
2023-02-23T03:34:34.419Z,52.53
2023-02-23T03:37:33.734Z,53.16
2023-02-23T03:40:39.284Z,55.77
2023-02-23T03:43:30.679Z,56.62
2023-02-23T03:46:19.685Z,57.78
2023-02-23T03:49:07.023Z,58.36
2023-02-23T03:51:55.986Z,59.91
2023-02-23T03:55:07.999Z,61.34
2023-02-23T03:57:56.405Z,66.28
2023-02-23T04:00:47.906Z,64.69
2023-02-23T04:03:36.865Z,59.12
2023-02-23T04:06:26.209Z,53.61
2023-02-23T04:09:13.182Z,53.99
2023-02-23T04:12:06.300Z,56.08
2023-02-23T04:14:40.183Z,57.47
2023-02-23T04:17:08.463Z,58.90
2023-02-23T04:19:36.318Z,60.04
2023-02-23T04:22:04.065Z,61.00
2023-02-23T04:24:31.728Z,61.45
2023-02-23T04:26:59.413Z,63.81
2023-02-23T04:29:27.050Z,66.37
2023-02-23T04:31:54.765Z,63.80
2023-02-23T04:34:22.809Z,57.36
2023-02-23T04:36:51.407Z,54.14
2023-02-23T04:39:19.294Z,55.26
2023-02-23T04:41:48.968Z,56.27
2023-02-23T04:44:17.742Z,57.55
2023-02-23T04:46:45.697Z,58.47
2023-02-23T04:49:13.595Z,59.08
2023-02-23T04:51:41.275Z,60.46
2023-02-23T04:54:09.853Z,60.81
2023-02-23T04:56:37.596Z,61.56
2023-02-23T04:59:05.404Z,65.41
2023-02-23T05:01:33.400Z,66.72
2023-02-23T05:04:01.138Z,62.05
2023-02-23T05:06:28.862Z,54.37
2023-02-23T05:08:56.525Z,52.88
2023-02-23T05:11:25.076Z,54.44
2023-02-23T05:13:54.206Z,55.46
2023-02-23T05:16:21.934Z,57.14
2023-02-23T05:18:49.730Z,58.17
2023-02-23T05:21:18.245Z,59.24
2023-02-23T05:23:46.126Z,60.43
2023-02-23T05:26:14.662Z,61.60
2023-02-23T05:28:43.284Z,65.19
2023-02-23T05:31:11.641Z,66.97
2023-02-23T05:33:42.644Z,62.88
2023-02-23T05:36:12.384Z,54.88
2023-02-23T05:38:40.945Z,53.26
2023-02-23T05:41:10.238Z,54.85
2023-02-23T05:43:38.305Z,56.13
2023-02-23T05:46:17.449Z,56.71
2023-02-23T05:48:45.362Z,57.98
2023-02-23T05:51:15.225Z,59.44
2023-02-23T05:53:43.299Z,60.47
2023-02-23T05:56:13.753Z,61.14
2023-02-23T05:58:41.489Z,61.53
2023-02-23T06:01:09.191Z,64.71
2023-02-23T06:03:37.573Z,67.24
2023-02-23T06:06:06.228Z,62.16
2023-02-23T06:08:34.096Z,55.55
2023-02-23T06:11:02.629Z,53.70
2023-02-23T06:13:31.588Z,55.10
2023-02-23T06:15:59.714Z,56.68
2023-02-23T06:18:28.096Z,57.44
2023-02-23T06:20:59.440Z,58.81
2023-02-23T06:23:31.868Z,59.82
2023-02-23T06:26:00.283Z,60.77
2023-02-23T06:28:28.378Z,61.63
2023-02-23T06:30:56.520Z,65.77
2023-02-23T06:33:24.608Z,66.55
2023-02-23T06:35:52.845Z,60.50
2023-02-23T06:38:21.135Z,55.46
2023-02-23T06:40:48.915Z,53.97
2023-02-23T06:43:16.641Z,55.57
2023-02-23T06:45:46.531Z,56.46
2023-02-23T06:48:14.430Z,57.29
2023-02-23T06:50:42.280Z,58.61
2023-02-23T06:53:10.035Z,60.18
2023-02-23T06:55:37.724Z,60.77
2023-02-23T06:58:06.476Z,62.85
2023-02-23T07:00:34.316Z,66.48
2023-02-23T07:03:02.047Z,63.23
2023-02-23T07:05:29.893Z,57.37
2023-02-23T07:07:57.594Z,54.83
2023-02-23T07:10:25.630Z,56.09
2023-02-23T07:12:54.408Z,57.30
2023-02-23T07:15:22.549Z,58.15
2023-02-23T07:17:52.756Z,58.68
2023-02-23T07:20:20.513Z,60.67
2023-02-23T07:22:48.393Z,60.29
2023-02-23T07:25:16.230Z,61.22
2023-02-23T07:27:45.335Z,64.74
2023-02-23T07:30:13.843Z,65.90
2023-02-23T07:32:42.105Z,61.63
2023-02-23T07:35:10.228Z,55.03
2023-02-23T07:37:37.988Z,53.00
2023-02-23T07:40:06.212Z,53.76
2023-02-23T07:42:34.189Z,54.84
2023-02-23T07:45:02.528Z,55.32
2023-02-23T07:47:31.147Z,56.37
2023-02-23T07:50:00.637Z,56.93
2023-02-23T07:52:28.596Z,57.97
2023-02-23T07:54:57.082Z,57.78
2023-02-23T07:57:25.215Z,58.26
2023-02-23T07:59:52.934Z,58.62
2023-02-23T08:02:20.826Z,58.81
2023-02-23T08:04:48.672Z,59.62
2023-02-23T08:07:16.692Z,59.40
2023-02-23T08:09:44.441Z,60.13
2023-02-23T08:12:13.018Z,59.99
2023-02-23T08:14:40.828Z,60.11
2023-02-23T08:17:09.764Z,60.22
2023-02-23T08:19:37.705Z,60.34
2023-02-23T08:22:08.301Z,60.48
2023-02-23T08:24:37.772Z,60.54
2023-02-23T08:27:05.600Z,59.99
2023-02-23T08:29:34.896Z,60.43
2023-02-23T08:32:04.440Z,61.10
2023-02-23T08:34:32.427Z,60.82
2023-02-23T08:37:00.200Z,60.72
2023-02-23T08:39:28.189Z,60.33
2023-02-23T08:41:56.091Z,60.49
2023-02-23T08:44:23.930Z,60.36
2023-02-23T08:46:53.803Z,60.41
2023-02-23T08:49:22.536Z,60.04
2023-02-23T08:51:50.295Z,60.42
2023-02-23T08:54:18.052Z,60.13
2023-02-23T08:56:45.859Z,59.78
2023-02-23T08:59:14.247Z,59.55
2023-02-23T14:02:41.509Z,45.71
2023-02-23T14:05:19.211Z,45.42
2023-02-23T14:07:51.730Z,45.35
2023-02-23T14:10:27.736Z,45.22
2023-02-23T14:13:13.509Z,45.18
2023-02-23T14:16:10.843Z,45.35
2023-02-23T14:19:37.781Z,45.63
2023-02-23T14:22:10.430Z,46.03
2023-02-23T14:24:38.642Z,45.94
2023-02-23T14:27:41.339Z,46.11
2023-02-23T14:30:12.403Z,45.73
2023-02-23T14:32:43.577Z,45.37
2023-02-23T14:35:33.671Z,45.00
2023-02-23T14:38:16.821Z,45.36
2023-02-23T14:40:48.804Z,45.64
2023-02-23T14:43:31.800Z,45.85
2023-02-23T14:46:02.021Z,46.12
2023-02-23T14:48:30.077Z,46.56
2023-02-23T14:51:37.171Z,46.89
2023-02-23T14:54:11.457Z,47.32
2023-02-23T14:56:47.026Z,47.87
2023-02-23T14:59:23.017Z,48.31
2023-02-23T15:01:51.529Z,48.57
2023-02-23T15:04:25.684Z,48.81
2023-02-23T15:06:56.440Z,49.04
2023-02-23T15:09:33.299Z,49.42
2023-02-23T15:12:09.142Z,49.64
2023-02-23T15:14:37.973Z,49.87
2023-02-23T15:17:06.223Z,50.34
2023-02-23T15:19:35.975Z,50.68
2023-02-23T15:22:04.946Z,50.85
2023-02-23T15:24:42.092Z,51.34
2023-02-23T15:27:22.814Z,51.51
2023-02-23T15:29:50.768Z,51.44
2023-02-23T15:32:21.404Z,51.69
2023-02-23T15:34:49.906Z,51.60
2023-02-23T15:37:51.864Z,51.76
2023-02-23T15:40:27.668Z,51.71
2023-02-23T15:42:57.964Z,51.89
2023-02-23T15:45:39.795Z,52.14
2023-02-23T15:48:17.237Z,52.50
2023-02-23T15:50:50.618Z,52.66
2023-02-23T15:53:35.440Z,53.00
2023-02-23T15:56:12.639Z,53.52
2023-02-23T15:58:56.058Z,53.99
2023-02-23T16:01:30.278Z,54.02
2023-02-23T16:04:02.228Z,54.30
2023-02-23T16:06:38.646Z,54.67
2023-02-23T16:09:26.768Z,55.01
2023-02-23T16:12:00.337Z,55.24
2023-02-23T16:14:34.693Z,55.36
2023-02-23T16:17:11.224Z,55.49
2023-02-23T16:19:41.574Z,55.57
2023-02-23T16:22:19.530Z,56.04
2023-02-23T16:24:56.663Z,56.24
2023-02-23T16:27:25.681Z,56.41
2023-02-23T16:30:00.502Z,56.67
2023-02-23T16:32:44.235Z,57.00
2023-02-23T16:35:14.698Z,57.20
2023-02-23T16:38:02.096Z,57.58
2023-02-23T16:40:30.444Z,57.69
2023-02-23T16:42:59.652Z,58.06
2023-02-23T16:45:29.510Z,58.11
2023-02-23T16:48:02.304Z,58.24
2023-02-23T16:50:32.643Z,58.36
2023-02-23T16:53:02.237Z,58.54
2023-02-23T16:55:30.556Z,58.68
2023-02-23T16:58:00.962Z,58.91
2023-02-23T17:00:31.496Z,58.97
2023-02-23T17:03:00.950Z,59.15
2023-02-23T17:05:29.328Z,59.35
2023-02-23T17:07:58.887Z,59.44
2023-02-23T17:10:30.402Z,59.28
2023-02-23T17:13:05.155Z,59.29
2023-02-23T17:15:36.762Z,59.43
2023-02-23T17:18:05.604Z,59.69
2023-02-23T17:20:33.391Z,59.68
2023-02-23T17:23:02.340Z,60.13
2023-02-23T17:25:30.169Z,60.14
2023-02-23T17:27:58.850Z,60.36
2023-02-23T17:30:27.201Z,60.55
2023-02-23T17:32:57.205Z,60.54
2023-02-23T17:35:25.808Z,60.48
2023-02-23T17:37:54.701Z,60.58
2023-02-23T17:40:31.014Z,60.73
2023-02-23T17:43:01.027Z,60.83
2023-02-23T17:45:29.577Z,61.04
2023-02-23T17:47:58.276Z,61.13
2023-02-23T17:50:29.093Z,61.15
2023-02-23T17:52:57.316Z,61.25
2023-02-23T17:55:25.856Z,61.33
2023-02-23T17:57:53.655Z,61.48
2023-02-23T18:00:22.505Z,61.44
2023-02-23T18:02:50.292Z,61.56
2023-02-23T18:05:18.387Z,61.50
2023-02-23T18:07:48.234Z,61.52
2023-02-23T18:10:16.989Z,61.66
2023-02-23T18:12:44.988Z,61.85
2023-02-23T18:15:12.827Z,62.00
2023-02-23T18:17:40.495Z,62.15
2023-02-23T18:20:09.098Z,62.21
2023-02-23T18:22:37.025Z,62.17
2023-02-23T18:25:05.727Z,62.24
2023-02-23T18:27:33.520Z,65.62
2023-02-23T18:30:01.246Z,66.29
2023-02-23T18:32:28.992Z,61.33
2023-02-23T18:34:57.143Z,55.24
2023-02-23T18:37:25.387Z,53.19
2023-02-23T18:39:54.310Z,53.51
2023-02-23T18:42:21.938Z,54.31
2023-02-23T18:44:49.762Z,54.91
2023-02-23T18:47:17.877Z,55.62
2023-02-23T18:49:45.664Z,56.12
2023-02-23T18:52:13.577Z,56.54
2023-02-23T18:54:41.624Z,57.00
2023-02-23T18:57:09.381Z,57.42
2023-02-23T18:59:37.139Z,57.74
2023-02-23T19:02:04.930Z,58.06
2023-02-23T19:04:32.749Z,58.47
2023-02-23T19:07:00.381Z,58.74
2023-02-23T19:09:28.178Z,59.01
2023-02-23T19:11:55.900Z,59.30
2023-02-23T19:14:40.842Z,59.49
2023-02-23T19:17:11.608Z,59.63
2023-02-23T19:19:39.404Z,60.08
2023-02-23T19:22:07.060Z,60.24
2023-02-23T19:24:37.025Z,60.56
2023-02-23T19:27:04.844Z,60.64
2023-02-23T19:29:32.583Z,61.04
2023-02-23T19:32:00.423Z,61.26
2023-02-23T19:34:28.917Z,61.39
2023-02-23T19:36:57.223Z,61.61
2023-02-23T19:39:25.272Z,61.74
2023-02-23T19:41:53.268Z,61.89
2023-02-23T19:44:21.441Z,62.08
2023-02-23T19:46:49.195Z,62.09
2023-02-23T19:49:17.090Z,65.72
2023-02-23T19:51:45.084Z,67.05
2023-02-23T19:54:12.742Z,61.69
2023-02-23T19:56:40.708Z,55.00
2023-02-23T19:59:08.652Z,52.97
2023-02-23T20:01:37.375Z,53.56
2023-02-23T20:04:06.983Z,54.52
2023-02-23T20:06:40.858Z,55.27
2023-02-23T20:09:09.598Z,56.09
2023-02-23T20:11:37.545Z,56.97
2023-02-23T20:14:07.456Z,57.45
2023-02-23T20:16:35.984Z,57.85
2023-02-23T20:19:06.507Z,58.45
2023-02-23T20:21:34.557Z,58.68
2023-02-23T20:24:03.770Z,59.20
2023-02-23T20:26:35.382Z,59.50
2023-02-23T20:29:06.793Z,59.73
2023-02-23T20:31:35.775Z,60.51
2023-02-23T20:34:07.811Z,60.88
2023-02-23T20:36:35.909Z,61.13
2023-02-23T20:39:05.405Z,61.27
2023-02-23T20:41:33.376Z,61.62
2023-02-23T20:44:01.393Z,61.96
2023-02-23T20:46:30.659Z,65.36
2023-02-23T20:48:59.449Z,66.89
2023-02-23T20:51:27.581Z,60.89
2023-02-23T20:53:55.370Z,54.12
2023-02-23T20:56:23.300Z,52.62
2023-02-23T20:58:54.313Z,53.28
2023-02-23T21:01:25.652Z,54.27
2023-02-23T21:03:54.994Z,55.13
2023-02-23T21:06:24.620Z,55.87
2023-02-23T21:08:55.792Z,56.47
2023-02-23T21:11:27.278Z,57.00
2023-02-23T21:13:55.459Z,57.35
2023-02-23T21:16:24.284Z,57.88
2023-02-23T21:19:04.013Z,58.45
2023-02-23T21:21:46.380Z,58.91
2023-02-23T21:24:15.419Z,59.22
2023-02-23T21:26:43.579Z,59.70
2023-02-23T21:29:16.417Z,60.13
2023-02-23T21:31:46.324Z,60.54
2023-02-23T21:34:18.709Z,60.71
2023-02-23T21:36:47.601Z,61.11
2023-02-23T21:39:15.402Z,61.60
2023-02-23T21:41:43.198Z,61.93
2023-02-23T21:44:11.706Z,65.50
2023-02-23T21:46:40.616Z,66.76
2023-02-23T21:49:09.784Z,61.25
2023-02-23T21:51:38.263Z,54.66
2023-02-23T21:54:06.173Z,52.92
2023-02-23T21:56:34.858Z,53.68
2023-02-23T21:59:04.590Z,54.62
2023-02-23T22:01:34.960Z,55.38
2023-02-23T22:04:04.136Z,56.05
2023-02-23T22:06:40.016Z,56.54
2023-02-23T22:09:10.920Z,57.15
2023-02-23T22:11:43.726Z,57.78
2023-02-23T22:14:11.821Z,58.29
2023-02-23T22:16:43.322Z,58.84
2023-02-23T22:19:11.771Z,59.41
2023-02-23T22:21:41.751Z,59.75
2023-02-23T22:24:11.618Z,60.10
2023-02-23T22:26:41.854Z,60.53
2023-02-23T22:29:10.579Z,60.78
2023-02-23T22:31:39.043Z,61.07
2023-02-23T22:34:07.425Z,61.52
2023-02-23T22:36:35.694Z,61.78
2023-02-23T22:39:07.205Z,65.32
2023-02-23T22:41:42.227Z,66.68
2023-02-23T22:44:14.629Z,61.21
2023-02-23T22:46:43.073Z,55.45
2023-02-23T22:49:11.799Z,53.72
2023-02-23T22:51:39.529Z,54.52
2023-02-23T22:54:07.467Z,55.45
2023-02-23T22:56:39.564Z,56.34
2023-02-23T22:59:10.714Z,57.03
2023-02-23T23:01:39.283Z,57.53
2023-02-23T23:04:10.439Z,58.17
2023-02-23T23:06:41.496Z,58.81
2023-02-23T23:09:14.901Z,59.31
2023-02-23T23:11:43.012Z,59.82
2023-02-23T23:14:12.284Z,60.42
2023-02-23T23:16:48.158Z,60.92
2023-02-23T23:19:19.083Z,61.31
2023-02-23T23:21:46.792Z,61.72
2023-02-23T23:24:15.601Z,65.71
2023-02-23T23:26:44.355Z,66.67
2023-02-23T23:29:14.583Z,61.38
2023-02-23T23:31:45.588Z,55.75
2023-02-23T23:34:16.646Z,54.10
2023-02-23T23:36:53.294Z,54.90
2023-02-23T23:39:22.683Z,55.94
2023-02-23T23:41:50.484Z,56.91
2023-02-23T23:44:23.841Z,57.72
2023-02-23T23:46:52.689Z,58.36
2023-02-23T23:49:22.403Z,58.96
2023-02-23T23:51:52.523Z,59.50
2023-02-23T23:54:23.005Z,59.99
2023-02-23T23:56:51.077Z,60.42
2023-02-23T23:59:21.302Z,60.87
